sensor_id;sensor_type;location;lat;lon;timestamp;pressure;altitude;pressure_sealevel;temperature;humidity
18697;BME280;22617;43.690;27.956;2023-05-10T00:01:17;99458.00;;;7.63;76.08
18697;BME280;22617;43.690;27.956;2023-05-10T00:06:23;99454.63;;;7.68;77.10
18697;BME280;22617;43.690;27.956;2023-05-10T00:11:32;99453.91;;;7.78;76.40
18697;BME280;22617;43.690;27.956;2023-05-10T00:16:37;99447.91;;;7.81;76.77
18697;BME280;22617;43.690;27.956;2023-05-10T00:21:44;99453.91;;;7.77;76.26
18697;BME280;22617;43.690;27.956;2023-05-10T00:26:48;99446.09;;;7.75;76.08
18697;BME280;22617;43.690;27.956;2023-05-10T00:31:53;99451.16;;;7.68;76.35
18697;BME280;22617;43.690;27.956;2023-05-10T00:37:00;99452.03;;;7.68;76.03
18697;BME280;22617;43.690;27.956;2023-05-10T00:42:04;99456.03;;;7.47;75.19
18697;BME280;22617;43.690;27.956;2023-05-10T00:47:08;99452.47;;;7.38;75.59
18697;BME280;22617;43.690;27.956;2023-05-10T00:52:16;99453.16;;;7.30;75.47
18697;BME280;22617;43.690;27.956;2023-05-10T00:57:19;99450.38;;;7.18;76.01
18697;BME280;22617;43.690;27.956;2023-05-10T01:02:24;99449.28;;;7.04;76.08
18697;BME280;22617;43.690;27.956;2023-05-10T01:07:33;99441.19;;;6.85;75.60
18697;BME280;22617;43.690;27.956;2023-05-10T01:12:40;99441.72;;;6.68;75.67
18697;BME280;22617;43.690;27.956;2023-05-10T01:17:46;99453.91;;;6.73;76.58
18697;BME280;22617;43.690;27.956;2023-05-10T01:23:14;99451.94;;;6.60;76.44
18697;BME280;22617;43.690;27.956;2023-05-10T01:28:58;99450.22;;;6.62;77.31
18697;BME280;22617;43.690;27.956;2023-05-10T01:34:16;99443.34;;;6.61;77.46
18697;BME280;22617;43.690;27.956;2023-05-10T01:39:25;99449.56;;;6.29;78.32
18697;BME280;22617;43.690;27.956;2023-05-10T01:44:35;99446.03;;;6.24;78.50
18697;BME280;22617;43.690;27.956;2023-05-10T01:49:45;99449.38;;;6.18;77.55
18697;BME280;22617;43.690;27.956;2023-05-10T01:54:55;99443.34;;;6.19;78.96
18697;BME280;22617;43.690;27.956;2023-05-10T02:00:07;99442.50;;;6.20;78.41
18697;BME280;22617;43.690;27.956;2023-05-10T02:05:18;99443.56;;;6.28;79.26
18697;BME280;22617;43.690;27.956;2023-05-10T02:10:24;99431.69;;;6.39;78.57
18697;BME280;22617;43.690;27.956;2023-05-10T02:15:29;99436.50;;;6.21;77.93
18697;BME280;22617;43.690;27.956;2023-05-10T02:20:37;99432.81;;;6.10;77.46
18697;BME280;22617;43.690;27.956;2023-05-10T02:25:44;99442.13;;;6.02;78.35
18697;BME280;22617;43.690;27.956;2023-05-10T02:30:49;99441.31;;;6.04;77.86
18697;BME280;22617;43.690;27.956;2023-05-10T02:35:56;99441.06;;;5.92;78.23
18697;BME280;22617;43.690;27.956;2023-05-10T02:41:02;99437.78;;;5.99;78.99
18697;BME280;22617;43.690;27.956;2023-05-10T02:46:08;99436.72;;;5.90;78.35
18697;BME280;22617;43.690;27.956;2023-05-10T02:51:16;99429.63;;;5.83;78.80
18697;BME280;22617;43.690;27.956;2023-05-10T02:56:25;99445.03;;;5.78;78.55
18697;BME280;22617;43.690;27.956;2023-05-10T03:01:33;99441.13;;;5.95;79.12
18697;BME280;22617;43.690;27.956;2023-05-10T03:06:39;99442.00;;;5.94;78.75
18697;BME280;22617;43.690;27.956;2023-05-10T03:11:51;99443.78;;;5.98;78.58
18697;BME280;22617;43.690;27.956;2023-05-10T03:17:02;99443.69;;;5.94;78.05
18697;BME280;22617;43.690;27.956;2023-05-10T03:22:13;99442.72;;;5.90;78.56
18697;BME280;22617;43.690;27.956;2023-05-10T03:27:22;99452.53;;;6.03;78.64
18697;BME280;22617;43.690;27.956;2023-05-10T03:32:29;99446.53;;;6.06;78.97
18697;BME280;22617;43.690;27.956;2023-05-10T03:37:37;99452.25;;;6.32;80.07
18697;BME280;22617;43.690;27.956;2023-05-10T03:42:41;99448.00;;;6.35;79.63
18697;BME280;22617;43.690;27.956;2023-05-10T03:47:46;99456.03;;;6.47;80.49
18697;BME280;22617;43.690;27.956;2023-05-10T03:52:52;99462.34;;;6.63;80.81
18697;BME280;22617;43.690;27.956;2023-05-10T03:57:57;99455.84;;;6.85;81.03
18697;BME280;22617;43.690;27.956;2023-05-10T04:03:01;99464.78;;;7.02;81.70
18697;BME280;22617;43.690;27.956;2023-05-10T04:08:07;99458.00;;;7.09;82.14
18697;BME280;22617;43.690;27.956;2023-05-10T04:13:12;99459.94;;;7.22;82.06
18697;BME280;22617;43.690;27.956;2023-05-10T04:18:16;99467.97;;;7.37;83.08
18697;BME280;22617;43.690;27.956;2023-05-10T04:23:22;99462.16;;;7.53;82.71
18697;BME280;22617;43.690;27.956;2023-05-10T04:28:26;99461.59;;;7.72;83.51
18697;BME280;22617;43.690;27.956;2023-05-10T04:33:30;99461.78;;;7.84;83.96
18697;BME280;22617;43.690;27.956;2023-05-10T04:38:37;99461.31;;;8.13;85.15
18697;BME280;22617;43.690;27.956;2023-05-10T04:43:41;99462.50;;;8.36;85.43
18697;BME280;22617;43.690;27.956;2023-05-10T04:48:45;99468.81;;;8.56;85.37
18697;BME280;22617;43.690;27.956;2023-05-10T04:53:52;99462.13;;;8.77;84.72
18697;BME280;22617;43.690;27.956;2023-05-10T04:59:07;99460.69;;;9.06;85.22
18697;BME280;22617;43.690;27.956;2023-05-10T05:04:11;99467.06;;;9.43;87.07
18697;BME280;22617;43.690;27.956;2023-05-10T05:09:18;99466.38;;;9.70;87.35
18697;BME280;22617;43.690;27.956;2023-05-10T05:14:22;99461.28;;;9.85;87.28
18697;BME280;22617;43.690;27.956;2023-05-10T05:19:27;99463.28;;;10.25;87.55
18697;BME280;22617;43.690;27.956;2023-05-10T05:24:36;99461.59;;;10.45;84.97
18697;BME280;22617;43.690;27.956;2023-05-10T05:29:40;99454.75;;;10.75;84.37
18697;BME280;22617;43.690;27.956;2023-05-10T05:34:45;99456.53;;;10.82;81.28
18697;BME280;22617;43.690;27.956;2023-05-10T05:39:51;99456.56;;;11.18;80.10
18697;BME280;22617;43.690;27.956;2023-05-10T05:44:56;99460.94;;;11.45;76.28
18697;BME280;22617;43.690;27.956;2023-05-10T05:50:02;99452.19;;;11.70;74.84
18697;BME280;22617;43.690;27.956;2023-05-10T05:55:08;99458.31;;;11.82;74.19
18697;BME280;22617;43.690;27.956;2023-05-10T06:00:14;99466.91;;;12.23;75.10
18697;BME280;22617;43.690;27.956;2023-05-10T06:05:20;99461.72;;;12.15;71.94
18697;BME280;22617;43.690;27.956;2023-05-10T06:10:26;99464.31;;;12.32;74.06
18697;BME280;22617;43.690;27.956;2023-05-10T06:15:32;99472.22;;;12.06;72.74
18697;BME280;22617;43.690;27.956;2023-05-10T06:20:37;99459.91;;;12.42;73.84
18697;BME280;22617;43.690;27.956;2023-05-10T06:25:44;99462.31;;;12.81;71.16
18697;BME280;22617;43.690;27.956;2023-05-10T06:30:48;99457.75;;;13.10;68.72
18697;BME280;22617;43.690;27.956;2023-05-10T06:35:53;99455.94;;;13.25;69.52
18697;BME280;22617;43.690;27.956;2023-05-10T06:41:00;99463.50;;;13.63;67.09
18697;BME280;22617;43.690;27.956;2023-05-10T06:46:04;99463.84;;;13.22;66.40
18697;BME280;22617;43.690;27.956;2023-05-10T06:51:09;99476.81;;;13.37;67.05
18697;BME280;22617;43.690;27.956;2023-05-10T06:56:17;99470.16;;;13.97;66.34
18697;BME280;22617;43.690;27.956;2023-05-10T07:01:27;99469.50;;;13.72;64.89
18697;BME280;22617;43.690;27.956;2023-05-10T07:06:32;99461.66;;;14.55;65.10
18697;BME280;22617;43.690;27.956;2023-05-10T07:11:42;99463.72;;;14.25;63.45
18697;BME280;22617;43.690;27.956;2023-05-10T07:17:00;99460.91;;;14.44;61.37
18697;BME280;22617;43.690;27.956;2023-05-10T07:22:15;99471.44;;;15.08;64.31
18697;BME280;22617;43.690;27.956;2023-05-10T07:27:27;99472.22;;;15.71;62.63
18697;BME280;22617;43.690;27.956;2023-05-10T07:32:38;99471.81;;;16.40;59.43
18697;BME280;22617;43.690;27.956;2023-05-10T07:37:47;99470.88;;;15.96;58.31
18697;BME280;22617;43.690;27.956;2023-05-10T07:43:03;99470.47;;;16.18;58.48
18697;BME280;22617;43.690;27.956;2023-05-10T07:48:11;99472.88;;;15.27;57.16
18697;BME280;22617;43.690;27.956;2023-05-10T07:53:17;99479.25;;;15.12;61.60
18697;BME280;22617;43.690;27.956;2023-05-10T07:58:25;99479.25;;;14.45;62.61
18697;BME280;22617;43.690;27.956;2023-05-10T08:03:33;99478.97;;;13.88;62.44
18697;BME280;22617;43.690;27.956;2023-05-10T08:08:46;99466.03;;;15.17;61.31
18697;BME280;22617;43.690;27.956;2023-05-10T08:13:56;99474.81;;;15.16;59.75
18697;BME280;22617;43.690;27.956;2023-05-10T08:19:04;99472.66;;;16.40;55.62
18697;BME280;22617;43.690;27.956;2023-05-10T08:24:12;99469.97;;;16.45;53.63
18697;BME280;22617;43.690;27.956;2023-05-10T08:29:21;99465.81;;;17.52;53.39
18697;BME280;22617;43.690;27.956;2023-05-10T08:34:32;99471.72;;;16.87;52.63
18697;BME280;22617;43.690;27.956;2023-05-10T08:39:38;99467.50;;;17.54;52.78
18697;BME280;22617;43.690;27.956;2023-05-10T08:44:51;99464.88;;;18.53;51.59
18697;BME280;22617;43.690;27.956;2023-05-10T08:49:57;99465.41;;;18.95;49.98
18697;BME280;22617;43.690;27.956;2023-05-10T08:55:03;99475.22;;;18.91;50.16
18697;BME280;22617;43.690;27.956;2023-05-10T09:00:12;99470.91;;;17.22;51.42
18697;BME280;22617;43.690;27.956;2023-05-10T09:05:20;99478.66;;;17.28;51.92
18697;BME280;22617;43.690;27.956;2023-05-10T09:10:26;99464.38;;;18.71;50.22
18697;BME280;22617;43.690;27.956;2023-05-10T09:15:34;99461.72;;;19.28;48.77
18697;BME280;22617;43.690;27.956;2023-05-10T09:20:40;99461.72;;;17.75;50.39
18697;BME280;22617;43.690;27.956;2023-05-10T09:25:46;99461.75;;;18.08;52.06
18697;BME280;22617;43.690;27.956;2023-05-10T09:31:00;99461.38;;;18.21;49.39
18697;BME280;22617;43.690;27.956;2023-05-10T09:36:11;99467.09;;;17.35;49.17
18697;BME280;22617;43.690;27.956;2023-05-10T09:41:22;99460.38;;;18.25;47.57
18697;BME280;22617;43.690;27.956;2023-05-10T09:46:29;99458.50;;;19.18;48.28
18697;BME280;22617;43.690;27.956;2023-05-10T09:51:34;99462.09;;;18.59;48.44
18697;BME280;22617;43.690;27.956;2023-05-10T09:56:40;99464.34;;;18.72;47.32
18697;BME280;22617;43.690;27.956;2023-05-10T10:01:51;99448.31;;;19.06;48.90
18697;BME280;22617;43.690;27.956;2023-05-10T10:07:02;99444.75;;;19.35;48.39
18697;BME280;22617;43.690;27.956;2023-05-10T10:12:09;99452.00;;;18.73;46.66
18697;BME280;22617;43.690;27.956;2023-05-10T10:17:18;99457.84;;;18.84;46.97
18697;BME280;22617;43.690;27.956;2023-05-10T10:22:26;99448.16;;;19.91;47.09
18697;BME280;22617;43.690;27.956;2023-05-10T10:27:39;99449.03;;;19.39;47.66
18697;BME280;22617;43.690;27.956;2023-05-10T10:33:01;99445.81;;;20.09;45.63
18697;BME280;22617;43.690;27.956;2023-05-10T10:38:21;99444.56;;;20.19;48.18
18697;BME280;22617;43.690;27.956;2023-05-10T10:43:27;99439.50;;;19.62;47.35
18697;BME280;22617;43.690;27.956;2023-05-10T10:48:33;99444.97;;;20.56;45.98
18697;BME280;22617;43.690;27.956;2023-05-10T10:53:38;99437.09;;;20.30;45.32
18697;BME280;22617;43.690;27.956;2023-05-10T10:58:49;99454.06;;;17.99;48.91
18697;BME280;22617;43.690;27.956;2023-05-10T11:04:21;99445.19;;;18.34;48.44
18697;BME280;22617;43.690;27.956;2023-05-10T11:09:39;99434.34;;;19.83;48.63
18697;BME280;22617;43.690;27.956;2023-05-10T11:14:49;99435.53;;;19.48;45.85
18697;BME280;22617;43.690;27.956;2023-05-10T11:20:11;99424.75;;;20.29;46.45
18697;BME280;22617;43.690;27.956;2023-05-10T11:25:26;99429.19;;;19.54;45.23
18697;BME280;22617;43.690;27.956;2023-05-10T11:30:58;99435.66;;;17.97;47.85
18697;BME280;22617;43.690;27.956;2023-05-10T11:36:10;99419.94;;;19.39;47.34
18697;BME280;22617;43.690;27.956;2023-05-10T11:41:20;99439.69;;;19.01;44.54
18697;BME280;22617;43.690;27.956;2023-05-10T11:46:37;99417.38;;;19.64;47.98
18697;BME280;22617;43.690;27.956;2023-05-10T11:52:03;99416.16;;;19.74;45.25
18697;BME280;22617;43.690;27.956;2023-05-10T11:57:10;99416.00;;;19.52;44.81
18697;BME280;22617;43.690;27.956;2023-05-10T12:02:16;99418.13;;;19.94;46.49
18697;BME280;22617;43.690;27.956;2023-05-10T12:07:23;99421.88;;;19.08;46.49
18697;BME280;22617;43.690;27.956;2023-05-10T12:12:38;99409.41;;;19.66;47.24
18697;BME280;22617;43.690;27.956;2023-05-10T12:17:45;99412.28;;;19.32;47.01
18697;BME280;22617;43.690;27.956;2023-05-10T12:22:54;99420.75;;;19.15;46.81
18697;BME280;22617;43.690;27.956;2023-05-10T12:28:04;99426.97;;;19.40;46.14
18697;BME280;22617;43.690;27.956;2023-05-10T12:33:12;99402.81;;;19.25;45.30
18697;BME280;22617;43.690;27.956;2023-05-10T12:38:29;99409.06;;;19.50;46.55
18697;BME280;22617;43.690;27.956;2023-05-10T12:43:36;99415.13;;;17.76;47.73
18697;BME280;22617;43.690;27.956;2023-05-10T12:48:43;99410.97;;;18.61;47.04
18697;BME280;22617;43.690;27.956;2023-05-10T12:53:50;99390.06;;;19.37;46.22
18697;BME280;22617;43.690;27.956;2023-05-10T12:58:54;99403.56;;;18.43;46.60
18697;BME280;22617;43.690;27.956;2023-05-10T13:03:59;99401.34;;;18.28;49.34
18697;BME280;22617;43.690;27.956;2023-05-10T13:15:33;99386.94;;;18.10;47.77
18697;BME280;22617;43.690;27.956;2023-05-10T13:21:39;99386.13;;;18.38;48.02
18697;BME280;22617;43.690;27.956;2023-05-10T13:27:55;99371.84;;;19.02;48.38
18697;BME280;22617;43.690;27.956;2023-05-10T13:33:28;99374.50;;;17.49;48.24
18697;BME280;22617;43.690;27.956;2023-05-10T13:38:43;99377.31;;;17.41;49.13
18697;BME280;22617;43.690;27.956;2023-05-10T13:44:19;99371.50;;;17.97;48.21
18697;BME280;22617;43.690;27.956;2023-05-10T13:49:49;99373.44;;;18.21;47.73
18697;BME280;22617;43.690;27.956;2023-05-10T13:55:15;99375.53;;;17.43;49.07
18697;BME280;22617;43.690;27.956;2023-05-10T14:20:49;99380.78;;;17.08;49.94
18697;BME280;22617;43.690;27.956;2023-05-10T14:25:53;99383.69;;;17.33;49.76
18697;BME280;22617;43.690;27.956;2023-05-10T14:30:56;99390.19;;;16.83;49.37
18697;BME280;22617;43.690;27.956;2023-05-10T14:36:02;99390.31;;;15.92;52.33
18697;BME280;22617;43.690;27.956;2023-05-10T14:41:06;99389.09;;;16.10;51.40
18697;BME280;22617;43.690;27.956;2023-05-10T14:46:12;99390.16;;;16.44;51.13
18697;BME280;22617;43.690;27.956;2023-05-10T14:51:18;99385.53;;;16.12;51.62
18697;BME280;22617;43.690;27.956;2023-05-10T14:56:23;99393.78;;;15.96;52.97
18697;BME280;22617;43.690;27.956;2023-05-10T15:01:27;99384.22;;;15.92;52.18
18697;BME280;22617;43.690;27.956;2023-05-10T15:06:34;99391.94;;;15.50;52.95
18697;BME280;22617;43.690;27.956;2023-05-10T15:11:37;99384.28;;;15.38;53.79
18697;BME280;22617;43.690;27.956;2023-05-10T15:16:41;99384.94;;;15.49;53.30
18697;BME280;22617;43.690;27.956;2023-05-10T15:21:46;99383.78;;;15.16;53.57
18697;BME280;22617;43.690;27.956;2023-05-10T15:26:50;99386.84;;;14.88;54.92
18697;BME280;22617;43.690;27.956;2023-05-10T15:31:53;99387.78;;;14.83;54.19
18697;BME280;22617;43.690;27.956;2023-05-10T15:36:58;99381.72;;;14.80;53.57
18697;BME280;22617;43.690;27.956;2023-05-10T15:42:02;99387.06;;;14.72;53.77
18697;BME280;22617;43.690;27.956;2023-05-10T15:47:06;99392.31;;;14.74;53.26
18697;BME280;22617;43.690;27.956;2023-05-10T15:52:11;99393.47;;;14.53;53.77
18697;BME280;22617;43.690;27.956;2023-05-10T15:57:14;99397.06;;;14.46;54.20
18697;BME280;22617;43.690;27.956;2023-05-10T16:02:18;99398.34;;;14.10;56.66
18697;BME280;22617;43.690;27.956;2023-05-10T16:07:25;99402.06;;;13.91;57.27
18697;BME280;22617;43.690;27.956;2023-05-10T16:12:29;99408.44;;;13.70;57.58
18697;BME280;22617;43.690;27.956;2023-05-10T16:17:33;99411.97;;;13.63;58.08
18697;BME280;22617;43.690;27.956;2023-05-10T16:22:39;99411.31;;;13.41;58.17
18697;BME280;22617;43.690;27.956;2023-05-10T16:27:45;99422.66;;;13.39;59.31
18697;BME280;22617;43.690;27.956;2023-05-10T16:32:49;99428.06;;;13.21;59.89
18697;BME280;22617;43.690;27.956;2023-05-10T16:37:54;99424.75;;;12.91;60.10
18697;BME280;22617;43.690;27.956;2023-05-10T16:42:57;99428.22;;;12.98;59.90
18697;BME280;22617;43.690;27.956;2023-05-10T16:48:01;99431.75;;;12.89;59.92
18697;BME280;22617;43.690;27.956;2023-05-10T16:53:06;99436.19;;;12.72;60.59
18697;BME280;22617;43.690;27.956;2023-05-10T16:58:09;99435.41;;;12.61;61.08
18697;BME280;22617;43.690;27.956;2023-05-10T17:03:13;99443.28;;;12.56;61.57
18697;BME280;22617;43.690;27.956;2023-05-10T17:08:20;99444.28;;;12.20;62.30
18697;BME280;22617;43.690;27.956;2023-05-10T17:13:24;99441.69;;;12.17;62.41
18697;BME280;22617;43.690;27.956;2023-05-10T17:18:27;99453.06;;;12.01;63.05
18697;BME280;22617;43.690;27.956;2023-05-10T17:23:32;99452.22;;;11.75;64.36
18697;BME280;22617;43.690;27.956;2023-05-10T17:28:37;99449.59;;;11.66;64.90
18697;BME280;22617;43.690;27.956;2023-05-10T17:33:41;99463.53;;;11.59;65.08
18697;BME280;22617;43.690;27.956;2023-05-10T17:38:46;99466.16;;;11.42;65.65
18697;BME280;22617;43.690;27.956;2023-05-10T17:43:50;99474.84;;;11.29;66.40
18697;BME280;22617;43.690;27.956;2023-05-10T17:48:55;99480.09;;;11.35;66.53
18697;BME280;22617;43.690;27.956;2023-05-10T17:54:01;99485.28;;;11.23;66.46
18697;BME280;22617;43.690;27.956;2023-05-10T17:59:04;99493.09;;;11.15;67.58
18697;BME280;22617;43.690;27.956;2023-05-10T18:04:08;99499.97;;;10.84;67.49
18697;BME280;22617;43.690;27.956;2023-05-10T18:09:13;99501.72;;;10.78;68.11
18697;BME280;22617;43.690;27.956;2023-05-10T18:14:19;99505.16;;;10.75;68.39
18697;BME280;22617;43.690;27.956;2023-05-10T18:19:40;99512.09;;;10.60;68.77
18697;BME280;22617;43.690;27.956;2023-05-10T18:25:00;99513.72;;;10.42;69.74
18697;BME280;22617;43.690;27.956;2023-05-10T18:30:06;99518.06;;;10.36;69.57
18697;BME280;22617;43.690;27.956;2023-05-10T18:35:11;99521.50;;;10.30;70.18
18697;BME280;22617;43.690;27.956;2023-05-10T18:40:16;99519.75;;;10.32;70.42
18697;BME280;22617;43.690;27.956;2023-05-10T18:45:21;99530.00;;;10.06;70.79
18697;BME280;22617;43.690;27.956;2023-05-10T18:50:25;99534.34;;;10.09;71.07
18697;BME280;22617;43.690;27.956;2023-05-10T18:55:29;99538.59;;;9.95;71.99
18697;BME280;22617;43.690;27.956;2023-05-10T19:00:33;99535.97;;;9.92;71.98
18697;BME280;22617;43.690;27.956;2023-05-10T19:05:36;99538.59;;;9.95;72.69
18697;BME280;22617;43.690;27.956;2023-05-10T19:10:41;99539.38;;;9.85;72.67
18697;BME280;22617;43.690;27.956;2023-05-10T19:15:45;99531.53;;;9.80;72.84
18697;BME280;22617;43.690;27.956;2023-05-10T19:20:53;99540.28;;;9.87;73.48
18697;BME280;22617;43.690;27.956;2023-05-10T19:25:59;99544.47;;;9.71;73.18
18697;BME280;22617;43.690;27.956;2023-05-10T19:31:02;99540.19;;;9.76;73.75
18697;BME280;22617;43.690;27.956;2023-05-10T19:36:07;99540.84;;;9.51;73.96
18697;BME280;22617;43.690;27.956;2023-05-10T19:41:12;99540.78;;;9.43;74.74
18697;BME280;22617;43.690;27.956;2023-05-10T19:46:16;99538.16;;;9.42;75.06
18697;BME280;22617;43.690;27.956;2023-05-10T19:51:21;99542.38;;;9.31;75.03
18697;BME280;22617;43.690;27.956;2023-05-10T19:56:26;99545.09;;;9.43;75.24
18697;BME280;22617;43.690;27.956;2023-05-10T20:01:30;99547.66;;;9.38;75.35
18697;BME280;22617;43.690;27.956;2023-05-10T20:06:34;99548.53;;;9.39;75.03
18697;BME280;22617;43.690;27.956;2023-05-10T20:11:39;99537.09;;;9.20;75.12
18697;BME280;22617;43.690;27.956;2023-05-10T20:16:42;99532.75;;;9.19;75.48
18697;BME280;22617;43.690;27.956;2023-05-10T20:21:46;99536.03;;;9.01;75.61
18697;BME280;22617;43.690;27.956;2023-05-10T20:26:51;99524.69;;;8.98;75.95
18697;BME280;22617;43.690;27.956;2023-05-10T20:31:55;99521.25;;;8.99;75.29
18697;BME280;22617;43.690;27.956;2023-05-10T20:36:59;99521.63;;;8.55;75.34
18697;BME280;22617;43.690;27.956;2023-05-10T20:42:04;99525.81;;;8.46;77.00
18697;BME280;22617;43.690;27.956;2023-05-10T20:47:08;99529.19;;;8.37;77.44
18697;BME280;22617;43.690;27.956;2023-05-10T20:52:12;99522.34;;;8.45;77.30
18697;BME280;22617;43.690;27.956;2023-05-10T20:57:18;99518.88;;;8.43;76.49
18697;BME280;22617;43.690;27.956;2023-05-10T21:02:22;99514.50;;;8.39;76.56
18697;BME280;22617;43.690;27.956;2023-05-10T21:07:26;99494.94;;;8.04;77.74
18697;BME280;22617;43.690;27.956;2023-05-10T21:12:30;99503.59;;;8.04;77.68
18697;BME280;22617;43.690;27.956;2023-05-10T21:17:34;99510.25;;;8.46;77.36
18697;BME280;22617;43.690;27.956;2023-05-10T21:22:38;99508.22;;;8.26;75.53
18697;BME280;22617;43.690;27.956;2023-05-10T21:27:42;99508.19;;;8.25;75.39
18697;BME280;22617;43.690;27.956;2023-05-10T21:32:46;99515.25;;;8.32;76.01
18697;BME280;22617;43.690;27.956;2023-05-10T21:37:50;99511.06;;;8.42;75.49
18697;BME280;22617;43.690;27.956;2023-05-10T21:42:55;99510.13;;;8.37;75.27
18697;BME280;22617;43.690;27.956;2023-05-10T21:47:58;99507.97;;;8.08;74.07
18697;BME280;22617;43.690;27.956;2023-05-10T21:53:02;99504.75;;;8.24;75.33
18697;BME280;22617;43.690;27.956;2023-05-10T21:58:08;99506.34;;;8.15;74.60
18697;BME280;22617;43.690;27.956;2023-05-10T22:03:11;99509.03;;;8.22;74.93
18697;BME280;22617;43.690;27.956;2023-05-10T22:08:15;99510.81;;;8.26;74.25
18697;BME280;22617;43.690;27.956;2023-05-10T22:13:20;99507.34;;;8.24;73.40
18697;BME280;22617;43.690;27.956;2023-05-10T22:18:24;99499.44;;;8.17;74.03
18697;BME280;22617;43.690;27.956;2023-05-10T22:23:27;99501.78;;;7.99;73.64
18697;BME280;22617;43.690;27.956;2023-05-10T22:28:32;99506.06;;;7.95;73.85
18697;BME280;22617;43.690;27.956;2023-05-10T22:33:36;99496.56;;;7.97;73.89
18697;BME280;22617;43.690;27.956;2023-05-10T22:38:40;99502.50;;;7.88;73.65
18697;BME280;22617;43.690;27.956;2023-05-10T22:43:45;99495.56;;;7.87;74.44
18697;BME280;22617;43.690;27.956;2023-05-10T22:48:49;99498.78;;;7.71;73.37
18697;BME280;22617;43.690;27.956;2023-05-10T22:53:53;99497.91;;;7.72;72.67
18697;BME280;22617;43.690;27.956;2023-05-10T22:58:58;99501.09;;;7.55;73.58
18697;BME280;22617;43.690;27.956;2023-05-10T23:04:02;99495.38;;;7.75;73.12
18697;BME280;22617;43.690;27.956;2023-05-10T23:09:05;99494.28;;;7.60;72.33
18697;BME280;22617;43.690;27.956;2023-05-10T23:14:11;99497.91;;;7.18;73.21
18697;BME280;22617;43.690;27.956;2023-05-10T23:19:15;99500.44;;;7.14;73.63
18697;BME280;22617;43.690;27.956;2023-05-10T23:24:18;99490.16;;;7.20;73.65
18697;BME280;22617;43.690;27.956;2023-05-10T23:29:23;99487.84;;;7.36;72.87
18697;BME280;22617;43.690;27.956;2023-05-10T23:34:27;99474.09;;;7.40;72.17
18697;BME280;22617;43.690;27.956;2023-05-10T23:39:31;99487.63;;;7.23;71.51
18697;BME280;22617;43.690;27.956;2023-05-10T23:44:36;99485.31;;;6.91;72.41
18697;BME280;22617;43.690;27.956;2023-05-10T23:49:39;99492.13;;;6.86;72.67
18697;BME280;22617;43.690;27.956;2023-05-10T23:54:44;99493.72;;;6.78;72.97
18697;BME280;22617;43.690;27.956;2023-05-10T23:59:49;99485.94;;;6.78;72.44
